createdAt,value
2023-05-20T05:00:47.608Z,72.52
2023-05-20T05:01:47.597Z,72.62
2023-05-20T05:02:47.586Z,72.52
2023-05-20T05:03:47.524Z,72.82
2023-05-20T05:04:47.618Z,73.13
2023-05-20T05:05:47.502Z,73.09
2023-05-20T05:06:47.549Z,73.13
2023-05-20T05:07:47.483Z,73.74
2023-05-20T05:08:47.472Z,73.54
2023-05-20T05:09:47.481Z,73.94
2023-05-20T05:10:47.460Z,73.94
2023-05-20T05:11:52.470Z,73.74
2023-05-20T05:12:47.428Z,73.94
2023-05-20T05:13:47.415Z,73.63
2023-05-20T05:14:47.424Z,73.80
2023-05-20T05:15:47.425Z,73.74
2023-05-20T05:16:47.405Z,73.84
2023-05-20T05:17:47.446Z,73.84
2023-05-20T05:18:47.403Z,73.74
2023-05-20T05:19:47.373Z,73.94
2023-05-20T05:20:47.378Z,73.63
2023-05-20T05:21:47.323Z,73.80
2023-05-20T05:22:52.353Z,73.70
2023-05-20T05:23:47.306Z,73.80
2023-05-20T05:24:47.299Z,73.70
2023-05-20T05:25:47.312Z,73.43
2023-05-20T05:26:47.276Z,74.24
2023-05-20T05:27:47.255Z,74.24
2023-05-20T05:28:47.243Z,74.04
2023-05-20T05:29:47.248Z,74.55
2023-05-20T05:30:47.227Z,74.41
2023-05-20T05:31:47.232Z,74.31
2023-05-20T05:32:47.362Z,74.41
2023-05-20T05:33:52.216Z,74.04
2023-05-20T05:34:47.184Z,74.41
2023-05-20T05:35:47.165Z,73.70
2023-05-20T05:36:47.164Z,73.60
2023-05-20T05:37:47.155Z,73.80
2023-05-20T05:38:47.157Z,73.91
2023-05-20T05:39:47.134Z,74.01
2023-05-20T05:40:47.103Z,73.91
2023-05-20T05:41:47.094Z,73.50
2023-05-20T05:42:47.098Z,73.87
2023-05-20T05:43:47.084Z,73.60
2023-05-20T05:44:52.141Z,73.60
2023-05-20T05:45:47.053Z,73.87
2023-05-20T05:46:47.064Z,73.26
2023-05-20T05:47:47.067Z,73.26
2023-05-20T05:48:47.053Z,73.97
2023-05-20T05:49:47.017Z,73.57
2023-05-20T05:50:47.001Z,73.67
2023-05-20T05:51:46.984Z,73.16
2023-05-20T05:52:46.973Z,73.02
2023-05-20T05:53:46.970Z,73.26
2023-05-20T05:54:46.949Z,73.22
2023-05-20T05:55:51.960Z,73.06
2023-05-20T05:56:46.938Z,73.13
2023-05-20T05:57:46.924Z,72.92
2023-05-20T05:58:46.912Z,72.62
2023-05-20T05:59:46.896Z,72.62
2023-05-20T06:00:46.981Z,73.19
2023-05-20T06:01:46.940Z,72.89
2023-05-20T06:02:47.134Z,71.97
2023-05-20T06:03:46.982Z,72.08
2023-05-20T06:04:46.875Z,72.28
2023-05-20T06:05:46.827Z,72.89
2023-05-20T06:06:51.833Z,72.69
2023-05-20T06:07:46.824Z,72.08
2023-05-20T06:08:46.814Z,72.38
2023-05-20T06:09:46.779Z,72.28
2023-05-20T06:10:46.780Z,72.17
2023-05-20T06:11:46.771Z,72.25
2023-05-20T06:12:46.761Z,72.85
2023-05-20T06:13:46.739Z,71.84
2023-05-20T06:14:46.735Z,72.14
2023-05-20T06:15:46.713Z,72.14
2023-05-20T06:16:46.761Z,71.60
2023-05-20T06:17:51.724Z,71.91
2023-05-20T06:18:46.728Z,71.88
2023-05-20T06:19:46.662Z,71.20
2023-05-20T06:20:46.679Z,70.76
2023-05-20T06:21:46.697Z,70.65
2023-05-20T06:22:46.717Z,70.96
2023-05-20T06:23:46.623Z,71.88
2023-05-20T06:24:46.604Z,70.65
2023-05-20T06:25:46.614Z,70.15
2023-05-20T06:26:46.613Z,70.15
2023-05-20T06:27:46.586Z,70.01
2023-05-20T06:28:51.582Z,70.35
2023-05-20T06:29:46.548Z,69.92
2023-05-20T06:30:46.557Z,70.01
2023-05-20T06:31:46.531Z,70.76
2023-05-20T06:32:46.605Z,70.65
2023-05-20T06:33:46.511Z,70.83
2023-05-20T06:34:46.506Z,70.93
2023-05-20T06:35:46.496Z,69.71
2023-05-20T06:36:46.489Z,70.12
2023-05-20T06:37:46.482Z,70.62
2023-05-20T06:38:46.477Z,70.12
2023-05-20T06:39:51.474Z,70.08
2023-05-20T06:40:46.446Z,70.12
2023-05-20T06:41:46.416Z,70.01
2023-05-20T06:42:46.414Z,70.29
2023-05-20T06:43:46.393Z,69.98
2023-05-20T06:44:46.426Z,70.18
2023-05-20T06:45:46.374Z,70.69
2023-05-20T06:46:46.500Z,70.39
2023-05-20T06:47:46.397Z,69.98
2023-05-20T06:48:46.338Z,70.29
2023-05-20T06:49:47.669Z,69.95
2023-05-20T06:50:51.379Z,69.65
2023-05-20T06:51:46.301Z,69.74
2023-05-20T06:52:46.322Z,69.85
2023-05-20T06:53:46.292Z,69.71
2023-05-20T06:54:46.273Z,69.51
2023-05-20T06:55:46.260Z,69.27
2023-05-20T06:56:46.316Z,69.38
2023-05-20T06:57:46.244Z,68.06
2023-05-20T06:58:46.233Z,68.37
2023-05-20T06:59:46.212Z,67.96
2023-05-20T07:00:46.198Z,67.93
2023-05-20T07:01:51.261Z,68.63
2023-05-20T07:02:46.272Z,68.43
2023-05-20T07:03:46.279Z,67.19
2023-05-20T07:04:46.167Z,67.69
2023-05-20T07:05:46.141Z,67.83
2023-05-20T07:06:46.133Z,67.72
2023-05-20T07:07:46.152Z,67.52
2023-05-20T07:08:46.157Z,67.43
2023-05-20T07:09:46.100Z,68.00
2023-05-20T07:10:46.084Z,67.39
2023-05-20T07:11:46.079Z,68.51
2023-05-20T07:12:51.089Z,68.30
2023-05-20T07:13:46.059Z,68.30
2023-05-20T07:14:46.064Z,68.20
2023-05-20T07:15:46.060Z,67.39
2023-05-20T07:16:46.013Z,67.49
2023-05-20T07:17:46.022Z,67.97
2023-05-20T07:18:46.051Z,67.76
2023-05-20T07:19:45.981Z,68.27
2023-05-20T07:20:46.018Z,67.19
2023-05-20T07:21:45.978Z,67.97
2023-05-20T07:22:45.970Z,68.07
2023-05-20T07:23:50.985Z,67.76
2023-05-20T07:24:45.927Z,67.56
2023-05-20T07:25:45.916Z,67.36
2023-05-20T07:26:45.940Z,67.06
2023-05-20T07:27:45.916Z,67.23
2023-05-20T07:28:45.877Z,67.56
2023-05-20T07:29:45.863Z,66.82
2023-05-20T07:30:45.852Z,67.23
2023-05-20T07:31:45.921Z,67.43
2023-05-20T07:32:45.891Z,67.33
2023-05-20T07:33:45.843Z,67.43
2023-05-20T07:34:50.830Z,67.40
2023-05-20T07:35:45.812Z,67.10
2023-05-20T07:36:45.801Z,67.30
2023-05-20T07:37:45.788Z,67.19
2023-05-20T07:38:57.079Z,67.13
2023-05-20T07:39:45.800Z,67.02
2023-05-20T07:40:45.747Z,66.79
2023-05-20T07:41:45.744Z,66.79
2023-05-20T07:42:45.715Z,67.40
2023-05-20T07:43:45.818Z,66.49
2023-05-20T07:44:45.717Z,66.25
2023-05-20T07:45:50.745Z,66.59
2023-05-20T07:46:45.676Z,66.76
2023-05-20T07:47:45.782Z,65.95
2023-05-20T07:48:45.657Z,66.02
2023-05-20T07:49:45.654Z,65.32
2023-05-20T07:50:45.644Z,64.72
2023-05-20T07:51:45.646Z,65.32
2023-05-20T07:52:55.838Z,64.69
2023-05-20T07:53:45.615Z,64.18
2023-05-20T07:54:45.632Z,64.28
2023-05-20T07:55:45.600Z,64.38
2023-05-20T07:56:50.591Z,64.18
2023-05-20T07:57:45.556Z,64.55
2023-05-20T07:58:45.540Z,63.85
2023-05-20T07:59:45.568Z,64.55
2023-05-20T08:00:45.516Z,64.05
2023-05-20T08:01:45.506Z,63.24
2023-05-20T08:02:45.580Z,63.11
2023-05-20T08:03:45.582Z,62.81
2023-05-20T08:04:45.477Z,63.08
2023-05-20T08:05:45.492Z,62.98
2023-05-20T08:06:45.462Z,63.01
2023-05-20T08:07:50.466Z,62.91
2023-05-20T08:08:45.434Z,63.28
2023-05-20T08:09:45.429Z,63.08
2023-05-20T08:10:45.438Z,62.88
2023-05-20T08:11:47.311Z,62.58
2023-05-20T08:12:45.386Z,62.88
2023-05-20T08:13:45.386Z,62.68
2023-05-20T08:14:45.366Z,62.98
2023-05-20T08:15:45.347Z,63.08
2023-05-20T08:16:45.364Z,62.98
2023-05-20T08:17:45.381Z,62.88
2023-05-20T08:18:50.366Z,62.88
2023-05-20T08:19:45.311Z,62.98
2023-05-20T08:20:45.294Z,62.78
2023-05-20T08:21:45.283Z,63.28
2023-05-20T08:22:45.273Z,62.68
2023-05-20T08:23:45.286Z,62.35
2023-05-20T08:24:45.251Z,61.94
2023-05-20T08:25:45.231Z,61.41
2023-05-20T08:26:45.231Z,61.91
2023-05-20T08:27:45.249Z,61.61
2023-05-20T08:28:45.201Z,61.21
2023-05-20T08:29:50.272Z,61.79
2023-05-20T08:30:45.231Z,61.58
2023-05-20T08:31:45.163Z,61.18
2023-05-20T08:32:45.199Z,60.31
2023-05-20T08:33:45.148Z,60.51
2023-05-20T08:34:45.147Z,61.01
2023-05-20T08:35:45.142Z,61.38
2023-05-20T08:36:45.125Z,61.29
2023-05-20T08:37:45.105Z,60.98
2023-05-20T08:38:45.108Z,61.29
2023-05-20T08:39:45.072Z,61.18
2023-05-20T08:40:50.082Z,61.29
2023-05-20T08:41:45.086Z,60.85
2023-05-20T08:42:45.052Z,61.76
2023-05-20T08:43:45.083Z,60.75
2023-05-20T08:44:45.017Z,60.45
2023-05-20T08:45:45.003Z,60.25
2023-05-20T08:46:45.137Z,60.35
2023-05-20T08:47:45.070Z,60.45
2023-05-20T08:48:44.972Z,60.35
2023-05-20T08:49:44.964Z,60.22
2023-05-20T08:50:44.966Z,60.62
2023-05-20T08:51:49.969Z,60.32
2023-05-20T08:52:44.924Z,60.32
2023-05-20T08:53:44.930Z,60.32
2023-05-20T08:54:44.905Z,59.79
2023-05-20T08:55:44.904Z,59.09
2023-05-20T08:56:44.919Z,60.19
2023-05-20T08:57:44.907Z,59.77
2023-05-20T08:58:44.861Z,59.06
2023-05-20T08:59:45.009Z,58.83
2023-05-20T09:00:44.856Z,58.94
2023-05-20T09:01:44.877Z,58.53
2023-05-20T09:02:49.859Z,57.80
2023-05-20T09:03:44.804Z,57.68
2023-05-20T09:04:44.821Z,56.98
2023-05-20T09:05:44.810Z,56.95
2023-05-20T09:06:44.776Z,55.42
2023-05-20T09:07:44.762Z,55.74
2023-05-20T09:08:44.750Z,56.12
2023-05-20T09:09:44.774Z,56.12
2023-05-20T09:10:44.740Z,55.65
2023-05-20T09:11:44.752Z,55.74
2023-05-20T09:12:44.701Z,56.48
2023-05-20T09:13:49.715Z,56.27
2023-05-20T09:14:44.688Z,56.87
2023-05-20T09:15:44.693Z,55.87
2023-05-20T09:16:44.677Z,56.07
2023-05-20T09:17:44.691Z,56.10
2023-05-20T09:18:44.645Z,56.73
2023-05-20T09:19:44.633Z,56.30
2023-05-20T09:20:44.609Z,57.30
2023-05-20T09:21:44.603Z,56.52
2023-05-20T09:22:44.590Z,56.90
2023-05-20T09:23:44.620Z,56.87
2023-05-20T09:24:49.662Z,56.07
2023-05-20T09:25:44.557Z,56.05
2023-05-20T09:26:44.550Z,56.55
2023-05-20T09:27:44.532Z,55.94
2023-05-20T09:28:44.525Z,56.35
2023-05-20T09:29:44.535Z,56.45
2023-05-20T09:30:45.987Z,55.74
2023-05-20T09:31:44.549Z,55.42
2023-05-20T09:32:44.492Z,55.32
2023-05-20T09:33:44.480Z,54.49
2023-05-20T09:34:44.452Z,53.99
2023-05-20T09:35:49.493Z,55.02
2023-05-20T09:36:44.427Z,54.74
2023-05-20T09:37:44.439Z,54.72
2023-05-20T09:38:44.415Z,54.19
2023-05-20T09:39:44.393Z,54.39
2023-05-20T09:40:44.410Z,53.99
2023-05-20T09:41:44.420Z,54.14
2023-05-20T09:42:44.358Z,53.02
2023-05-20T09:43:44.383Z,52.09
2023-05-20T09:44:44.344Z,50.97
2023-05-20T09:45:44.334Z,52.29
2023-05-20T09:46:49.360Z,53.14
2023-05-20T09:47:44.393Z,54.19
2023-05-20T09:48:44.327Z,54.57
2023-05-20T09:49:44.285Z,53.87
2023-05-20T09:50:44.318Z,53.67
2023-05-20T09:51:44.258Z,54.14
2023-05-20T09:52:44.263Z,53.64
2023-05-20T09:53:44.289Z,53.72
2023-05-20T09:54:44.230Z,52.22
2023-05-20T09:55:44.208Z,52.64
2023-05-20T09:56:44.203Z,52.55
2023-05-20T09:57:44.202Z,53.04
2023-05-20T09:58:44.184Z,54.06
2023-05-20T09:59:49.239Z,53.87
2023-05-20T10:00:44.175Z,53.87
2023-05-20T10:01:44.176Z,53.77
2023-05-20T10:02:44.258Z,53.89
2023-05-20T10:03:44.555Z,54.60
2023-05-20T10:04:44.119Z,53.79
2023-05-20T10:05:44.102Z,54.99
2023-05-20T10:06:44.132Z,54.82
2023-05-20T10:07:44.105Z,54.92
2023-05-20T10:08:44.071Z,55.02
2023-05-20T10:09:44.061Z,54.92
2023-05-20T10:10:49.069Z,54.82
2023-05-20T10:11:44.071Z,54.49
2023-05-20T10:12:44.078Z,54.79
2023-05-20T10:13:44.021Z,53.79
2023-05-20T10:14:44.001Z,54.39
2023-05-20T10:15:44.018Z,53.99
2023-05-20T10:16:43.996Z,54.10
2023-05-20T10:17:43.993Z,53.69
2023-05-20T10:18:44.025Z,55.02
2023-05-20T10:19:43.945Z,54.69
2023-05-20T10:20:43.947Z,54.10
2023-05-20T10:21:48.957Z,54.99
2023-05-20T10:22:43.941Z,53.89
2023-05-20T10:23:43.900Z,54.10
2023-05-20T10:24:43.970Z,53.97
2023-05-20T10:25:43.894Z,54.06
2023-05-20T10:26:43.869Z,54.27
2023-05-20T10:27:43.858Z,53.87
2023-05-20T10:28:43.845Z,54.27
2023-05-20T10:29:43.846Z,54.06
2023-05-20T10:30:44.530Z,53.94
2023-05-20T10:31:43.827Z,53.64
2023-05-20T10:32:48.879Z,52.77
2023-05-20T10:33:43.810Z,52.94
2023-05-20T10:34:43.798Z,52.84
2023-05-20T10:35:43.787Z,52.84
2023-05-20T10:36:43.809Z,53.84
2023-05-20T10:37:43.746Z,52.74
2023-05-20T10:38:43.730Z,53.14
2023-05-20T10:39:43.722Z,52.84
2023-05-20T10:40:43.720Z,52.94
2023-05-20T10:41:43.696Z,53.02
2023-05-20T10:42:43.731Z,53.31
2023-05-20T10:43:48.694Z,52.09
2023-05-20T10:44:43.681Z,51.50
2023-05-20T10:45:43.667Z,51.37
2023-05-20T10:47:43.687Z,50.95
2023-05-20T10:48:43.740Z,50.15
2023-05-20T10:49:43.614Z,50.65
2023-05-20T10:50:43.618Z,50.25
2023-05-20T10:51:43.584Z,49.93
2023-05-20T10:52:43.571Z,49.93
2023-05-20T10:53:43.566Z,50.65
2023-05-20T10:54:51.492Z,50.65
2023-05-20T10:55:43.533Z,50.85
2023-05-20T10:56:43.525Z,50.85
2023-05-20T10:57:43.523Z,50.65
2023-05-20T10:58:43.511Z,50.65
2023-05-20T10:59:43.497Z,50.67
2023-05-20T11:00:43.580Z,50.87
2023-05-20T11:01:43.493Z,51.37
2023-05-20T11:02:43.577Z,52.19
2023-05-20T11:03:43.599Z,52.17
2023-05-20T11:04:43.445Z,51.70
2023-05-20T11:05:48.467Z,50.87
2023-05-20T11:06:43.462Z,50.85
2023-05-20T11:07:43.406Z,50.65
2023-05-20T11:08:43.415Z,51.27
2023-05-20T11:09:43.378Z,51.54
2023-05-20T11:10:43.373Z,50.00
2023-05-20T11:11:43.355Z,49.48
2023-05-20T11:12:43.456Z,49.13
2023-05-20T11:13:43.362Z,48.04
2023-05-20T11:14:43.324Z,48.11
2023-05-20T11:15:43.318Z,46.53
2023-05-20T11:16:48.343Z,46.88
2023-05-20T11:17:43.349Z,45.86
2023-05-20T11:18:43.464Z,45.47
2023-05-20T11:19:43.272Z,45.79
2023-05-20T11:20:43.262Z,46.31
2023-05-20T11:21:43.269Z,46.35
2023-05-20T11:22:43.249Z,47.66
2023-05-20T11:23:43.224Z,48.38
2023-05-20T11:24:43.262Z,48.91
2023-05-20T11:25:43.229Z,49.73
2023-05-20T11:26:43.200Z,49.53
2023-05-20T11:27:43.191Z,50.25
2023-05-20T11:28:43.174Z,49.75
2023-05-20T11:29:48.196Z,51.15
2023-05-20T11:30:43.336Z,50.67
2023-05-20T11:31:43.219Z,50.74
2023-05-20T11:32:43.190Z,50.85
2023-05-20T11:33:43.113Z,50.74
2023-05-20T11:34:43.105Z,50.97
2023-05-20T11:35:43.233Z,51.47
2023-05-20T11:36:43.095Z,51.40
2023-05-20T11:37:43.094Z,51.29
2023-05-20T11:38:43.160Z,50.70
2023-05-20T11:39:43.053Z,52.19
2023-05-20T11:40:50.389Z,52.12
2023-05-20T11:41:43.035Z,52.02
2023-05-20T11:42:48.040Z,52.00
2023-05-20T11:43:43.039Z,52.19
2023-05-20T11:44:43.053Z,51.27
2023-05-20T11:45:42.985Z,50.45
2023-05-20T11:46:43.061Z,50.85
2023-05-20T11:47:43.009Z,49.63
2023-05-20T11:48:42.956Z,48.73
2023-05-20T11:49:42.941Z,49.53
2023-05-20T11:50:42.974Z,49.75
2023-05-20T11:51:42.913Z,48.75
2023-05-20T11:52:42.906Z,49.77
2023-05-20T11:53:47.936Z,50.37
2023-05-20T11:54:42.892Z,50.67
2023-05-20T11:55:42.886Z,50.67
2023-05-20T11:56:42.891Z,51.07
2023-05-20T11:57:42.852Z,49.60
2023-05-20T11:58:42.849Z,48.14
2023-05-20T11:59:42.853Z,47.13
2023-05-20T12:00:51.313Z,48.16
2023-05-20T12:01:42.837Z,48.83
2023-05-20T12:02:42.921Z,49.60
2023-05-20T12:03:42.940Z,49.63
2023-05-20T12:04:47.831Z,49.53
2023-05-20T12:05:42.773Z,49.73
2023-05-20T12:06:42.745Z,49.73
2023-05-20T12:07:42.760Z,48.91
2023-05-20T12:08:42.756Z,49.60
2023-05-20T12:09:42.743Z,48.71
2023-05-20T12:10:42.708Z,49.53
2023-05-20T12:11:42.704Z,50.32
2023-05-20T12:12:42.680Z,50.25
2023-05-20T12:13:42.665Z,49.85
2023-05-20T12:14:42.719Z,48.71
2023-05-20T12:15:47.680Z,48.50
2023-05-20T12:16:42.659Z,48.16
2023-05-20T12:17:42.661Z,48.46
2023-05-20T12:18:42.648Z,48.14
2023-05-20T12:19:42.632Z,46.90
2023-05-20T12:20:42.658Z,46.60
2023-05-20T12:21:42.597Z,46.08
2023-05-20T12:22:42.568Z,45.67
2023-05-20T12:23:42.561Z,45.59
2023-05-20T12:24:42.553Z,46.92
2023-05-20T12:25:42.554Z,47.34
2023-05-20T12:26:42.577Z,47.25
2023-05-20T12:27:42.512Z,48.16
2023-05-20T12:28:47.542Z,48.01
2023-05-20T12:29:42.513Z,49.83
2023-05-20T12:30:42.520Z,49.73
2023-05-20T12:31:42.535Z,49.75
2023-05-20T12:32:42.592Z,50.45
2023-05-20T12:33:42.450Z,49.85
2023-05-20T12:34:42.431Z,49.98
2023-05-20T12:35:42.422Z,49.95
2023-05-20T12:36:42.411Z,49.85
2023-05-20T12:37:42.409Z,49.85
2023-05-20T12:38:42.469Z,50.15
2023-05-20T12:39:42.374Z,50.85
2023-05-20T12:40:42.365Z,50.35
2023-05-20T12:41:47.395Z,50.37
2023-05-20T12:42:42.369Z,50.97
2023-05-20T12:43:42.329Z,50.97
2023-05-20T12:44:42.355Z,51.17
2023-05-20T12:45:42.379Z,51.17
2023-05-20T12:46:42.334Z,51.37
2023-05-20T12:47:42.302Z,51.17
2023-05-20T12:48:42.808Z,51.77
2023-05-20T12:49:42.269Z,51.47
2023-05-20T12:50:42.294Z,52.19
2023-05-20T12:51:42.265Z,52.00
2023-05-20T12:52:47.282Z,52.32
2023-05-20T12:53:42.215Z,52.72
2023-05-20T12:54:42.210Z,52.82
2023-05-20T12:55:42.196Z,52.12
2023-05-20T12:56:42.231Z,52.52
2023-05-20T12:57:42.197Z,52.32
2023-05-20T12:58:42.179Z,52.02
2023-05-20T12:59:42.147Z,52.92
2023-05-20T13:00:42.168Z,52.52
2023-05-20T13:01:42.207Z,53.31
2023-05-20T13:02:42.282Z,52.22
2023-05-20T13:03:47.162Z,52.82
2023-05-20T13:04:42.099Z,52.82
2023-05-20T13:05:42.095Z,52.02
2023-05-20T13:06:42.092Z,52.32
2023-05-20T13:07:42.073Z,52.59
2023-05-20T13:08:42.049Z,52.52
2023-05-20T13:09:42.064Z,51.92
2023-05-20T13:10:42.048Z,52.42
2023-05-20T13:11:42.016Z,51.89
2023-05-20T13:12:42.012Z,52.69
2023-05-20T13:13:42.013Z,52.29
2023-05-20T13:14:47.009Z,52.19
2023-05-20T13:15:42.013Z,51.79
2023-05-20T13:16:42.015Z,51.89
2023-05-20T13:17:41.987Z,51.79
2023-05-20T13:18:41.973Z,52.39
2023-05-20T13:19:41.939Z,52.27
2023-05-20T13:20:41.926Z,52.47
2023-05-20T13:21:41.933Z,51.87
2023-05-20T13:22:41.896Z,52.67
2023-05-20T13:23:41.893Z,52.17
2023-05-20T13:24:41.899Z,51.84
2023-05-20T13:25:46.892Z,51.84
2023-05-20T13:26:41.850Z,52.14
2023-05-20T13:27:41.866Z,50.95
2023-05-20T13:28:41.838Z,50.85
2023-05-20T13:29:41.862Z,49.85
2023-05-20T13:30:41.946Z,50.65
2023-05-20T13:31:41.793Z,50.65
2023-05-20T13:32:41.841Z,51.25
2023-05-20T13:33:41.805Z,50.85
2023-05-20T13:34:41.771Z,51.54
2023-05-20T13:35:41.753Z,50.45
2023-05-20T13:36:46.774Z,50.85
2023-05-20T13:37:41.729Z,51.54
2023-05-20T13:38:41.730Z,51.27
2023-05-20T13:39:41.757Z,51.27
2023-05-20T13:40:41.705Z,50.65
2023-05-20T13:41:41.687Z,50.57
2023-05-20T13:42:41.701Z,50.25
2023-05-20T13:43:41.668Z,50.47
2023-05-20T13:44:41.648Z,50.27
2023-05-20T13:45:41.671Z,51.07
2023-05-20T13:46:41.749Z,50.67
2023-05-20T13:47:46.674Z,50.55
2023-05-20T13:48:41.611Z,50.57
2023-05-20T13:49:41.597Z,50.65
2023-05-20T13:50:41.585Z,51.07
2023-05-20T13:51:41.606Z,50.67
2023-05-20T13:52:41.555Z,50.97
2023-05-20T13:53:41.558Z,51.27
2023-05-20T13:54:41.538Z,51.47
2023-05-20T13:55:41.538Z,51.45
2023-05-20T13:56:41.510Z,51.54
2023-05-20T13:57:41.730Z,50.55
2023-05-20T13:58:46.541Z,51.07
2023-05-20T13:59:41.473Z,51.27
2023-05-20T14:00:41.461Z,51.45
2023-05-20T14:01:41.564Z,51.27
2023-05-20T14:02:41.561Z,51.25
2023-05-20T14:03:41.590Z,51.15
2023-05-20T14:04:41.419Z,50.97
2023-05-20T14:05:41.422Z,51.27
2023-05-20T14:06:41.403Z,51.47
2023-05-20T14:07:41.412Z,51.97
2023-05-20T14:08:41.379Z,51.77
2023-05-20T14:09:46.411Z,51.77
2023-05-20T14:10:41.379Z,51.47
2023-05-20T14:11:41.381Z,50.87
2023-05-20T14:12:41.341Z,50.87
2023-05-20T14:13:41.328Z,50.97
2023-05-20T14:14:41.309Z,51.07
2023-05-20T14:15:41.332Z,51.87
2023-05-20T14:16:41.336Z,52.07
2023-05-20T14:17:41.325Z,51.87
2023-05-20T14:18:41.287Z,51.47
2023-05-20T14:19:41.310Z,51.87
2023-05-20T14:20:46.274Z,52.37
2023-05-20T14:21:41.263Z,51.87
2023-05-20T14:22:41.367Z,52.07
2023-05-20T14:23:41.225Z,52.07
2023-05-20T14:24:41.202Z,51.87
2023-05-20T14:25:41.192Z,51.45
2023-05-20T14:26:41.194Z,51.95
2023-05-20T14:27:41.166Z,51.07
2023-05-20T14:28:41.150Z,51.25
2023-05-20T14:29:41.179Z,51.75
2023-05-20T14:30:41.151Z,50.55
2023-05-20T14:31:46.146Z,50.65
2023-05-20T14:32:41.212Z,51.25
2023-05-20T14:33:41.119Z,50.35
2023-05-20T14:34:41.196Z,50.65
2023-05-20T14:35:41.146Z,50.35
2023-05-20T14:36:41.070Z,50.92
2023-05-20T14:37:41.052Z,50.82
2023-05-20T14:38:41.049Z,50.62
2023-05-20T14:39:41.068Z,50.43
2023-05-20T14:40:41.025Z,50.62
2023-05-20T14:41:41.038Z,50.82
2023-05-20T14:42:46.020Z,50.82
2023-05-20T14:43:41.000Z,50.60
2023-05-20T14:44:40.988Z,50.60
2023-05-20T14:45:40.970Z,50.82
2023-05-20T14:46:41.012Z,50.82
2023-05-20T14:47:40.993Z,50.62
2023-05-20T14:48:40.931Z,50.30
2023-05-20T14:49:40.962Z,51.00
2023-05-20T14:50:40.919Z,50.62
2023-05-20T14:51:40.892Z,50.62
2023-05-20T14:52:40.899Z,50.62
2023-05-20T14:53:45.930Z,50.92
2023-05-20T14:54:40.890Z,51.40
2023-05-20T14:55:40.853Z,51.92
2023-05-20T14:56:40.850Z,51.70
2023-05-20T14:57:40.833Z,52.22
2023-05-20T14:58:40.826Z,51.50
2023-05-20T14:59:40.835Z,52.12
2023-05-20T15:00:40.863Z,51.72
2023-05-20T15:01:40.809Z,51.82
2023-05-20T15:02:40.849Z,52.22
2023-05-20T15:03:40.858Z,52.22
2023-05-20T15:04:45.793Z,51.92
2023-05-20T15:05:40.776Z,51.82
2023-05-20T15:06:40.724Z,52.32
2023-05-20T15:07:40.734Z,51.95
2023-05-20T15:08:40.710Z,52.34
2023-05-20T15:09:40.705Z,52.44
2023-05-20T15:10:40.681Z,52.55
2023-05-20T15:11:40.706Z,52.14
2023-05-20T15:12:40.665Z,52.04
2023-05-20T15:13:40.645Z,53.14
2023-05-20T15:14:40.646Z,52.55
2023-05-20T15:15:45.651Z,52.47
2023-05-20T15:16:40.634Z,53.27
2023-05-20T15:17:40.660Z,52.97
2023-05-20T15:18:40.612Z,53.06
2023-05-20T15:19:41.569Z,52.64
2023-05-20T15:20:40.806Z,52.84
2023-05-20T15:21:40.575Z,52.84
2023-05-20T15:22:40.562Z,53.34
2023-05-20T15:23:40.556Z,53.56
2023-05-20T15:24:40.563Z,53.77
2023-05-20T15:25:40.520Z,53.56
2023-05-20T15:26:45.547Z,53.66
2023-05-20T15:27:40.495Z,54.06
2023-05-20T15:28:40.490Z,53.86
2023-05-20T15:29:41.000Z,54.06
2023-05-20T15:30:40.474Z,53.86
2023-05-20T15:31:40.460Z,53.77
2023-05-20T15:32:40.522Z,54.06
2023-05-20T15:33:40.591Z,53.86
2023-05-20T15:34:40.418Z,53.86
2023-05-20T15:35:40.430Z,53.86
2023-05-20T15:36:40.452Z,53.86
2023-05-20T15:37:45.409Z,54.09
2023-05-20T15:38:40.378Z,53.99
2023-05-20T15:39:40.365Z,54.19
2023-05-20T15:40:40.356Z,54.89
2023-05-20T15:41:40.706Z,54.61
2023-05-20T15:42:40.324Z,54.61
2023-05-20T15:43:40.322Z,54.61
2023-05-20T15:44:40.304Z,54.91
2023-05-20T15:45:40.300Z,54.71
2023-05-20T15:46:40.418Z,54.91
2023-05-20T15:47:40.950Z,54.39
2023-05-20T15:48:45.284Z,54.82
2023-05-20T15:49:40.256Z,55.11
2023-05-20T15:50:40.309Z,55.41
2023-05-20T15:51:42.612Z,54.71
2023-05-20T15:52:40.301Z,55.62
2023-05-20T15:53:40.897Z,55.81
2023-05-20T15:54:40.199Z,55.04
2023-05-20T15:55:41.137Z,55.94
2023-05-20T15:56:40.178Z,56.04
2023-05-20T15:57:40.190Z,55.81
2023-05-20T15:58:40.146Z,55.84
2023-05-20T15:59:45.196Z,55.62
2023-05-20T16:00:40.126Z,55.44
2023-05-20T16:01:40.421Z,56.04
2023-05-20T16:02:40.392Z,55.64
2023-05-20T16:03:40.182Z,56.57
2023-05-20T16:04:40.097Z,56.14
2023-05-20T16:05:40.107Z,56.14
2023-05-20T16:06:40.059Z,56.34
2023-05-20T16:07:40.045Z,56.16
2023-05-20T16:08:40.066Z,56.34
2023-05-20T16:09:40.043Z,56.46
2023-05-20T16:10:45.032Z,56.14
2023-05-20T16:11:40.052Z,56.44
2023-05-20T16:12:39.990Z,57.14
2023-05-20T16:13:39.997Z,57.14
2023-05-20T16:14:39.981Z,56.46
2023-05-20T16:15:40.005Z,56.16
2023-05-20T16:16:40.063Z,56.16
2023-05-20T16:17:39.985Z,56.46
2023-05-20T16:18:40.013Z,56.87
2023-05-20T16:19:39.956Z,56.07
2023-05-20T16:20:39.933Z,56.77
2023-05-20T16:21:44.912Z,56.87
2023-05-20T16:22:39.892Z,56.46
2023-05-20T16:23:39.909Z,56.77
2023-05-20T16:24:39.880Z,56.67
2023-05-20T16:25:39.849Z,56.57
2023-05-20T16:26:39.843Z,56.67
2023-05-20T16:27:39.834Z,56.77
2023-05-20T16:28:39.834Z,56.96
2023-05-20T16:29:39.881Z,56.96
2023-05-20T16:30:39.789Z,56.67
2023-05-20T16:31:39.796Z,56.67
2023-05-20T16:32:44.836Z,56.57
2023-05-20T16:33:39.754Z,57.07
2023-05-20T16:34:39.750Z,56.57
2023-05-20T16:35:39.785Z,56.27
2023-05-20T16:36:39.759Z,56.37
2023-05-20T16:37:39.736Z,56.46
2023-05-20T16:38:39.702Z,56.57
2023-05-20T16:39:39.699Z,56.64
2023-05-20T16:40:39.704Z,56.87
2023-05-20T16:41:39.774Z,56.74
2023-05-20T16:42:39.660Z,56.87
2023-05-20T16:43:44.684Z,56.77
2023-05-20T16:44:39.632Z,56.94
2023-05-20T16:45:39.635Z,57.17
2023-05-20T16:46:39.622Z,57.07
2023-05-20T16:47:39.680Z,56.94
2023-05-20T16:48:39.595Z,57.37
2023-05-20T16:49:39.585Z,57.84
2023-05-20T16:50:39.565Z,57.26
2023-05-20T16:51:39.569Z,57.97
2023-05-20T16:52:39.589Z,57.76
2023-05-20T16:53:39.625Z,58.06
2023-05-20T16:54:44.539Z,58.34
2023-05-20T16:55:39.513Z,57.93
2023-05-20T16:56:39.534Z,57.74
2023-05-20T16:57:39.493Z,57.87
2023-05-20T16:58:39.484Z,58.06
2023-05-20T16:59:39.490Z,58.26
2023-05-20T17:00:39.475Z,58.76
2023-05-20T17:01:39.522Z,58.06
2023-05-20T17:02:39.466Z,58.49
2023-05-20T17:03:39.420Z,58.47
2023-05-20T17:04:39.483Z,58.56
2023-05-20T17:05:44.493Z,58.56
2023-05-20T17:06:39.386Z,58.69
2023-05-20T17:07:39.377Z,58.56
2023-05-20T17:08:39.364Z,58.67
2023-05-20T17:09:39.355Z,58.76
2023-05-20T17:10:39.348Z,58.37
2023-05-20T17:11:39.365Z,58.37
2023-05-20T17:12:39.340Z,58.76
2023-05-20T17:13:39.315Z,58.67
2023-05-20T17:14:39.307Z,58.37
2023-05-20T17:15:39.301Z,58.76
2023-05-20T17:16:44.368Z,58.76
2023-05-20T17:17:39.349Z,58.26
2023-05-20T17:18:39.251Z,58.47
2023-05-20T17:19:39.252Z,58.67
2023-05-20T17:20:39.228Z,58.47
2023-05-20T17:21:39.228Z,57.97
2023-05-20T17:22:39.208Z,58.67
2023-05-20T17:23:39.231Z,58.99
2023-05-20T17:24:39.200Z,58.86
2023-05-20T17:25:39.178Z,58.59
2023-05-20T17:26:39.167Z,59.59
2023-05-20T17:27:44.190Z,58.29
2023-05-20T17:28:39.141Z,58.99
2023-05-20T17:29:39.187Z,58.39
2023-05-20T17:30:39.119Z,58.59
2023-05-20T17:31:39.108Z,58.80
2023-05-20T17:32:39.221Z,59.32
2023-05-20T17:33:39.163Z,59.52
2023-05-20T17:34:39.081Z,58.72
2023-05-20T17:35:39.088Z,59.52
2023-05-20T17:36:39.066Z,59.12
2023-05-20T17:37:39.039Z,58.95
2023-05-20T17:38:44.059Z,59.65
2023-05-20T17:39:39.018Z,60.05
2023-05-20T17:40:39.004Z,59.85
2023-05-20T17:41:39.031Z,59.75
2023-05-20T17:42:38.985Z,59.65
2023-05-20T17:43:39.008Z,59.78
2023-05-20T17:44:38.962Z,59.95
2023-05-20T17:45:38.958Z,60.18
2023-05-20T17:46:38.995Z,60.08
2023-05-20T17:47:38.960Z,60.18
2023-05-20T17:48:38.927Z,60.38
2023-05-20T17:49:43.926Z,59.95
2023-05-20T17:50:38.890Z,59.98
2023-05-20T17:51:38.882Z,60.18
2023-05-20T17:52:38.877Z,60.05
2023-05-20T17:53:38.895Z,60.58